sensor_id;sensor_type;location;lat;lon;timestamp;P1;durP1;ratioP1;P2;durP2;ratioP2
23163;SDS011;31429;42.674;23.350;2023-12-20T00:00:47;208.80;;;151.30;;
23163;SDS011;31429;42.674;23.350;2023-12-20T00:01:48;213.52;;;149.25;;
23163;SDS011;31429;42.674;23.350;2023-12-20T00:02:49;213.32;;;149.88;;
23163;SDS011;31429;42.674;23.350;2023-12-20T00:03:50;198.00;;;143.57;;
23163;SDS011;31429;42.674;23.350;2023-12-20T00:04:51;206.20;;;147.23;;
23163;SDS011;31429;42.674;23.350;2023-12-20T00:05:52;190.73;;;135.50;;
23163;SDS011;31429;42.674;23.350;2023-12-20T00:06:54;199.07;;;140.23;;
23163;SDS011;31429;42.674;23.350;2023-12-20T00:07:54;187.85;;;137.13;;
23163;SDS011;31429;42.674;23.350;2023-12-20T00:08:55;184.90;;;133.43;;
23163;SDS011;31429;42.674;23.350;2023-12-20T00:09:56;182.77;;;132.13;;
23163;SDS011;31429;42.674;23.350;2023-12-20T00:10:57;181.93;;;128.67;;
23163;SDS011;31429;42.674;23.350;2023-12-20T00:11:58;170.43;;;125.67;;
23163;SDS011;31429;42.674;23.350;2023-12-20T00:12:58;167.90;;;122.60;;
23163;SDS011;31429;42.674;23.350;2023-12-20T00:13:59;156.03;;;114.13;;
23163;SDS011;31429;42.674;23.350;2023-12-20T00:15:00;148.30;;;107.03;;
23163;SDS011;31429;42.674;23.350;2023-12-20T00:16:00;125.57;;;96.97;;
23163;SDS011;31429;42.674;23.350;2023-12-20T00:17:01;138.73;;;101.50;;
23163;SDS011;31429;42.674;23.350;2023-12-20T00:18:02;128.97;;;97.83;;
23163;SDS011;31429;42.674;23.350;2023-12-20T00:19:03;122.80;;;90.13;;
23163;SDS011;31429;42.674;23.350;2023-12-20T00:20:04;120.60;;;91.57;;
23163;SDS011;31429;42.674;23.350;2023-12-20T00:21:06;119.60;;;92.53;;
23163;SDS011;31429;42.674;23.350;2023-12-20T00:22:08;116.60;;;89.20;;
23163;SDS011;31429;42.674;23.350;2023-12-20T00:23:09;113.40;;;86.57;;
23163;SDS011;31429;42.674;23.350;2023-12-20T00:24:10;109.77;;;84.20;;
23163;SDS011;31429;42.674;23.350;2023-12-20T00:25:11;112.50;;;85.00;;
23163;SDS011;31429;42.674;23.350;2023-12-20T00:26:11;114.43;;;87.43;;
23163;SDS011;31429;42.674;23.350;2023-12-20T00:27:12;115.85;;;87.38;;
23163;SDS011;31429;42.674;23.350;2023-12-20T00:28:13;111.10;;;84.27;;
23163;SDS011;31429;42.674;23.350;2023-12-20T00:29:14;109.17;;;84.47;;
23163;SDS011;31429;42.674;23.350;2023-12-20T00:30:15;114.00;;;87.30;;
23163;SDS011;31429;42.674;23.350;2023-12-20T00:31:15;108.67;;;83.83;;
23163;SDS011;31429;42.674;23.350;2023-12-20T00:32:16;119.73;;;89.43;;
23163;SDS011;31429;42.674;23.350;2023-12-20T00:33:17;107.50;;;83.27;;
23163;SDS011;31429;42.674;23.350;2023-12-20T00:34:18;110.50;;;81.83;;
23163;SDS011;31429;42.674;23.350;2023-12-20T00:35:18;111.50;;;84.00;;
23163;SDS011;31429;42.674;23.350;2023-12-20T00:36:19;112.87;;;84.03;;
23163;SDS011;31429;42.674;23.350;2023-12-20T00:37:21;110.67;;;82.93;;
23163;SDS011;31429;42.674;23.350;2023-12-20T00:38:42;101.38;;;76.78;;
23163;SDS011;31429;42.674;23.350;2023-12-20T00:39:43;105.03;;;77.93;;
23163;SDS011;31429;42.674;23.350;2023-12-20T00:40:44;108.00;;;81.33;;
23163;SDS011;31429;42.674;23.350;2023-12-20T00:41:44;104.10;;;79.23;;
23163;SDS011;31429;42.674;23.350;2023-12-20T00:42:46;109.07;;;81.20;;
23163;SDS011;31429;42.674;23.350;2023-12-20T00:43:47;108.65;;;82.82;;
23163;SDS011;31429;42.674;23.350;2023-12-20T00:44:47;106.80;;;78.83;;
23163;SDS011;31429;42.674;23.350;2023-12-20T00:45:48;103.23;;;76.83;;
23163;SDS011;31429;42.674;23.350;2023-12-20T00:46:49;95.50;;;74.00;;
23163;SDS011;31429;42.674;23.350;2023-12-20T00:47:50;100.03;;;75.57;;
23163;SDS011;31429;42.674;23.350;2023-12-20T00:48:51;97.80;;;74.07;;
23163;SDS011;31429;42.674;23.350;2023-12-20T00:49:52;96.47;;;74.13;;
23163;SDS011;31429;42.674;23.350;2023-12-20T00:50:52;93.47;;;72.50;;
23163;SDS011;31429;42.674;23.350;2023-12-20T00:51:53;92.63;;;70.27;;
23163;SDS011;31429;42.674;23.350;2023-12-20T00:52:55;91.10;;;70.00;;
23163;SDS011;31429;42.674;23.350;2023-12-20T00:53:56;86.40;;;66.82;;
23163;SDS011;31429;42.674;23.350;2023-12-20T00:54:57;92.47;;;70.73;;
23163;SDS011;31429;42.674;23.350;2023-12-20T00:55:57;82.23;;;64.13;;
23163;SDS011;31429;42.674;23.350;2023-12-20T00:57:18;91.50;;;66.38;;
23163;SDS011;31429;42.674;23.350;2023-12-20T00:58:19;83.97;;;65.33;;
23163;SDS011;31429;42.674;23.350;2023-12-20T00:59:20;87.00;;;65.67;;
23163;SDS011;31429;42.674;23.350;2023-12-20T01:00:20;85.20;;;65.73;;
23163;SDS011;31429;42.674;23.350;2023-12-20T01:01:21;82.65;;;61.05;;
23163;SDS011;31429;42.674;23.350;2023-12-20T01:02:22;79.23;;;60.33;;
23163;SDS011;31429;42.674;23.350;2023-12-20T01:03:23;80.07;;;60.67;;
23163;SDS011;31429;42.674;23.350;2023-12-20T01:04:24;82.63;;;62.83;;
23163;SDS011;31429;42.674;23.350;2023-12-20T01:05:24;85.30;;;65.33;;
23163;SDS011;31429;42.674;23.350;2023-12-20T01:06:25;90.70;;;65.97;;
23163;SDS011;31429;42.674;23.350;2023-12-20T01:07:26;84.10;;;63.10;;
23163;SDS011;31429;42.674;23.350;2023-12-20T01:08:28;92.97;;;64.80;;
23163;SDS011;31429;42.674;23.350;2023-12-20T01:09:29;88.90;;;65.15;;
23163;SDS011;31429;42.674;23.350;2023-12-20T01:10:29;91.97;;;65.83;;
23163;SDS011;31429;42.674;23.350;2023-12-20T01:11:30;86.70;;;65.43;;
23163;SDS011;31429;42.674;23.350;2023-12-20T01:12:31;91.53;;;68.03;;
23163;SDS011;31429;42.674;23.350;2023-12-20T01:13:32;93.30;;;70.27;;
23163;SDS011;31429;42.674;23.350;2023-12-20T01:14:32;88.07;;;67.40;;
23163;SDS011;31429;42.674;23.350;2023-12-20T01:15:33;94.77;;;69.10;;
23163;SDS011;31429;42.674;23.350;2023-12-20T01:16:34;99.30;;;72.17;;
23163;SDS011;31429;42.674;23.350;2023-12-20T01:17:34;101.70;;;75.90;;
23163;SDS011;31429;42.674;23.350;2023-12-20T01:18:35;99.75;;;72.80;;
23163;SDS011;31429;42.674;23.350;2023-12-20T01:19:36;100.10;;;74.47;;
23163;SDS011;31429;42.674;23.350;2023-12-20T01:20:37;100.27;;;74.37;;
23163;SDS011;31429;42.674;23.350;2023-12-20T01:21:38;98.83;;;75.00;;
23163;SDS011;31429;42.674;23.350;2023-12-20T01:22:39;92.03;;;68.73;;
23163;SDS011;31429;42.674;23.350;2023-12-20T01:23:41;100.27;;;75.90;;
23163;SDS011;31429;42.674;23.350;2023-12-20T01:24:41;94.90;;;70.25;;
23163;SDS011;31429;42.674;23.350;2023-12-20T01:26:02;93.78;;;71.63;;
23163;SDS011;31429;42.674;23.350;2023-12-20T01:27:23;95.43;;;70.82;;
23163;SDS011;31429;42.674;23.350;2023-12-20T01:28:24;95.10;;;70.27;;
23163;SDS011;31429;42.674;23.350;2023-12-20T01:29:25;91.23;;;69.10;;
23163;SDS011;31429;42.674;23.350;2023-12-20T01:30:26;90.37;;;67.97;;
23163;SDS011;31429;42.674;23.350;2023-12-20T01:31:26;88.00;;;69.23;;
23163;SDS011;31429;42.674;23.350;2023-12-20T01:32:27;91.97;;;69.03;;
23163;SDS011;31429;42.674;23.350;2023-12-20T01:33:28;98.17;;;71.50;;
23163;SDS011;31429;42.674;23.350;2023-12-20T01:34:29;90.07;;;67.33;;
23163;SDS011;31429;42.674;23.350;2023-12-20T01:35:29;90.83;;;67.83;;
23163;SDS011;31429;42.674;23.350;2023-12-20T01:36:30;86.93;;;66.90;;
23163;SDS011;31429;42.674;23.350;2023-12-20T01:37:31;86.17;;;65.83;;
23163;SDS011;31429;42.674;23.350;2023-12-20T01:38:32;89.73;;;66.67;;
23163;SDS011;31429;42.674;23.350;2023-12-20T01:39:34;93.47;;;70.63;;
23163;SDS011;31429;42.674;23.350;2023-12-20T01:40:34;86.40;;;64.65;;
23163;SDS011;31429;42.674;23.350;2023-12-20T01:41:35;84.30;;;65.60;;
23163;SDS011;31429;42.674;23.350;2023-12-20T01:42:36;90.77;;;68.70;;
23163;SDS011;31429;42.674;23.350;2023-12-20T01:43:37;85.35;;;65.93;;
23163;SDS011;31429;42.674;23.350;2023-12-20T01:44:38;89.83;;;68.67;;
23163;SDS011;31429;42.674;23.350;2023-12-20T01:45:39;92.77;;;69.30;;
23163;SDS011;31429;42.674;23.350;2023-12-20T01:46:39;92.67;;;70.57;;
23163;SDS011;31429;42.674;23.350;2023-12-20T01:47:41;93.43;;;69.57;;
23163;SDS011;31429;42.674;23.350;2023-12-20T01:48:41;98.70;;;71.60;;
23163;SDS011;31429;42.674;23.350;2023-12-20T01:49:44;89.82;;;69.55;;
23163;SDS011;31429;42.674;23.350;2023-12-20T01:50:44;96.47;;;70.40;;
23163;SDS011;31429;42.674;23.350;2023-12-20T01:51:45;94.97;;;71.47;;
23163;SDS011;31429;42.674;23.350;2023-12-20T01:52:46;95.43;;;71.63;;
23163;SDS011;31429;42.674;23.350;2023-12-20T01:54:09;96.03;;;71.13;;
23163;SDS011;31429;42.674;23.350;2023-12-20T01:55:11;99.67;;;72.03;;
23163;SDS011;31429;42.674;23.350;2023-12-20T01:56:15;97.38;;;72.38;;
23163;SDS011;31429;42.674;23.350;2023-12-20T01:57:36;102.20;;;73.25;;
23163;SDS011;31429;42.674;23.350;2023-12-20T01:58:37;98.57;;;73.23;;
23163;SDS011;31429;42.674;23.350;2023-12-20T01:59:43;89.28;;;68.57;;
23163;SDS011;31429;42.674;23.350;2023-12-20T02:00:45;93.93;;;70.18;;
23163;SDS011;31429;42.674;23.350;2023-12-20T02:01:46;97.65;;;70.88;;
23163;SDS011;31429;42.674;23.350;2023-12-20T02:02:46;108.87;;;75.50;;
23163;SDS011;31429;42.674;23.350;2023-12-20T02:03:47;95.33;;;71.37;;
23163;SDS011;31429;42.674;23.350;2023-12-20T02:05:09;100.78;;;74.50;;
23163;SDS011;31429;42.674;23.350;2023-12-20T02:06:10;90.22;;;69.00;;
23163;SDS011;31429;42.674;23.350;2023-12-20T02:07:11;87.20;;;66.63;;
23163;SDS011;31429;42.674;23.350;2023-12-20T02:08:33;92.45;;;70.38;;
23163;SDS011;31429;42.674;23.350;2023-12-20T02:09:34;93.47;;;70.40;;
23163;SDS011;31429;42.674;23.350;2023-12-20T02:10:37;95.13;;;71.17;;
23163;SDS011;31429;42.674;23.350;2023-12-20T02:11:38;94.63;;;67.45;;
23163;SDS011;31429;42.674;23.350;2023-12-20T02:12:40;96.27;;;70.67;;
23163;SDS011;31429;42.674;23.350;2023-12-20T02:13:40;90.65;;;67.43;;
23163;SDS011;31429;42.674;23.350;2023-12-20T02:14:41;94.40;;;70.53;;
23163;SDS011;31429;42.674;23.350;2023-12-20T02:15:42;91.03;;;67.10;;
23163;SDS011;31429;42.674;23.350;2023-12-20T02:16:43;87.25;;;67.25;;
23163;SDS011;31429;42.674;23.350;2023-12-20T02:17:44;87.97;;;65.13;;
23163;SDS011;31429;42.674;23.350;2023-12-20T02:18:47;90.70;;;69.25;;
23163;SDS011;31429;42.674;23.350;2023-12-20T02:19:47;99.27;;;73.57;;
23163;SDS011;31429;42.674;23.350;2023-12-20T02:20:48;93.07;;;69.97;;
23163;SDS011;31429;42.674;23.350;2023-12-20T02:21:50;98.77;;;74.93;;
23163;SDS011;31429;42.674;23.350;2023-12-20T02:23:05;102.45;;;75.63;;
23163;SDS011;31429;42.674;23.350;2023-12-20T02:24:06;91.83;;;70.67;;
23163;SDS011;31429;42.674;23.350;2023-12-20T02:25:07;102.37;;;73.17;;
23163;SDS011;31429;42.674;23.350;2023-12-20T02:26:08;101.05;;;71.75;;
23163;SDS011;31429;42.674;23.350;2023-12-20T02:27:09;90.05;;;70.13;;
23163;SDS011;31429;42.674;23.350;2023-12-20T02:28:09;91.23;;;69.90;;
23163;SDS011;31429;42.674;23.350;2023-12-20T02:29:10;95.03;;;72.00;;
23163;SDS011;31429;42.674;23.350;2023-12-20T02:30:11;86.47;;;66.67;;
23163;SDS011;31429;42.674;23.350;2023-12-20T02:31:12;89.32;;;67.85;;
23163;SDS011;31429;42.674;23.350;2023-12-20T02:32:13;86.50;;;65.33;;
23163;SDS011;31429;42.674;23.350;2023-12-20T02:33:14;86.07;;;67.50;;
23163;SDS011;31429;42.674;23.350;2023-12-20T02:34:35;91.70;;;67.38;;
23163;SDS011;31429;42.674;23.350;2023-12-20T02:35:35;84.40;;;66.40;;
23163;SDS011;31429;42.674;23.350;2023-12-20T02:36:36;84.73;;;66.57;;
23163;SDS011;31429;42.674;23.350;2023-12-20T02:37:38;83.20;;;66.03;;
23163;SDS011;31429;42.674;23.350;2023-12-20T02:38:39;88.10;;;67.43;;
23163;SDS011;31429;42.674;23.350;2023-12-20T02:39:40;88.47;;;64.13;;
23163;SDS011;31429;42.674;23.350;2023-12-20T02:40:40;84.90;;;64.40;;
23163;SDS011;31429;42.674;23.350;2023-12-20T02:41:41;90.13;;;70.90;;
23163;SDS011;31429;42.674;23.350;2023-12-20T02:42:42;92.40;;;69.77;;
23163;SDS011;31429;42.674;23.350;2023-12-20T02:43:43;94.37;;;71.47;;
23163;SDS011;31429;42.674;23.350;2023-12-20T02:44:44;117.20;;;89.40;;
23163;SDS011;31429;42.674;23.350;2023-12-20T02:45:45;114.20;;;83.93;;
23163;SDS011;31429;42.674;23.350;2023-12-20T02:46:46;116.93;;;89.13;;
23163;SDS011;31429;42.674;23.350;2023-12-20T02:49:05;146.68;;;108.93;;
23163;SDS011;31429;42.674;23.350;2023-12-20T02:50:07;141.60;;;102.35;;
23163;SDS011;31429;42.674;23.350;2023-12-20T02:51:08;138.65;;;102.60;;
23163;SDS011;31429;42.674;23.350;2023-12-20T02:52:09;136.23;;;99.73;;
23163;SDS011;31429;42.674;23.350;2023-12-20T02:53:11;147.30;;;111.57;;
23163;SDS011;31429;42.674;23.350;2023-12-20T02:54:11;135.55;;;101.75;;
23163;SDS011;31429;42.674;23.350;2023-12-20T02:55:12;134.10;;;100.67;;
23163;SDS011;31429;42.674;23.350;2023-12-20T02:56:13;131.67;;;100.83;;
23163;SDS011;31429;42.674;23.350;2023-12-20T02:57:14;144.07;;;107.40;;
23163;SDS011;31429;42.674;23.350;2023-12-20T02:58:15;173.03;;;127.00;;
23163;SDS011;31429;42.674;23.350;2023-12-20T02:59:17;149.50;;;112.47;;
23163;SDS011;31429;42.674;23.350;2023-12-20T03:00:18;132.40;;;100.63;;
23163;SDS011;31429;42.674;23.350;2023-12-20T03:01:19;155.53;;;112.70;;
23163;SDS011;31429;42.674;23.350;2023-12-20T03:02:20;163.73;;;121.27;;
23163;SDS011;31429;42.674;23.350;2023-12-20T03:03:21;155.40;;;112.17;;
23163;SDS011;31429;42.674;23.350;2023-12-20T03:04:21;187.17;;;137.63;;
23163;SDS011;31429;42.674;23.350;2023-12-20T03:05:22;193.90;;;137.63;;
23163;SDS011;31429;42.674;23.350;2023-12-20T03:06:23;196.27;;;140.47;;
23163;SDS011;31429;42.674;23.350;2023-12-20T03:07:44;191.70;;;141.05;;
23163;SDS011;31429;42.674;23.350;2023-12-20T03:09:06;217.57;;;155.88;;
23163;SDS011;31429;42.674;23.350;2023-12-20T03:10:26;210.95;;;156.40;;
23163;SDS011;31429;42.674;23.350;2023-12-20T03:11:27;216.60;;;156.03;;
23163;SDS011;31429;42.674;23.350;2023-12-20T03:12:48;209.82;;;155.00;;
23163;SDS011;31429;42.674;23.350;2023-12-20T03:13:49;220.30;;;160.10;;
23163;SDS011;31429;42.674;23.350;2023-12-20T03:14:49;206.40;;;153.47;;
23163;SDS011;31429;42.674;23.350;2023-12-20T03:15:50;218.73;;;160.67;;
23163;SDS011;31429;42.674;23.350;2023-12-20T03:16:51;228.17;;;169.07;;
23163;SDS011;31429;42.674;23.350;2023-12-20T03:17:52;237.07;;;177.80;;
23163;SDS011;31429;42.674;23.350;2023-12-20T03:18:53;243.90;;;178.00;;
23163;SDS011;31429;42.674;23.350;2023-12-20T03:19:53;254.13;;;184.80;;
23163;SDS011;31429;42.674;23.350;2023-12-20T03:20:54;247.53;;;182.73;;
23163;SDS011;31429;42.674;23.350;2023-12-20T03:21:55;238.07;;;176.50;;
23163;SDS011;31429;42.674;23.350;2023-12-20T03:22:56;236.20;;;173.70;;
23163;SDS011;31429;42.674;23.350;2023-12-20T03:23:56;243.33;;;174.73;;
23163;SDS011;31429;42.674;23.350;2023-12-20T03:24:59;239.33;;;177.60;;
23163;SDS011;31429;42.674;23.350;2023-12-20T03:25:59;241.60;;;179.02;;
23163;SDS011;31429;42.674;23.350;2023-12-20T03:27:00;233.55;;;170.68;;
23163;SDS011;31429;42.674;23.350;2023-12-20T03:28:01;243.00;;;175.97;;
23163;SDS011;31429;42.674;23.350;2023-12-20T03:29:02;230.90;;;166.30;;
23163;SDS011;31429;42.674;23.350;2023-12-20T03:30:03;235.93;;;173.03;;
23163;SDS011;31429;42.674;23.350;2023-12-20T03:31:05;235.57;;;169.65;;
23163;SDS011;31429;42.674;23.350;2023-12-20T03:32:06;225.80;;;166.20;;
23163;SDS011;31429;42.674;23.350;2023-12-20T03:33:26;231.43;;;171.45;;
23163;SDS011;31429;42.674;23.350;2023-12-20T03:34:27;250.70;;;182.20;;
23163;SDS011;31429;42.674;23.350;2023-12-20T03:35:48;249.55;;;182.15;;
23163;SDS011;31429;42.674;23.350;2023-12-20T03:36:49;263.80;;;191.03;;
23163;SDS011;31429;42.674;23.350;2023-12-20T03:37:49;238.87;;;174.67;;
23163;SDS011;31429;42.674;23.350;2023-12-20T03:38:50;234.27;;;171.37;;
23163;SDS011;31429;42.674;23.350;2023-12-20T03:39:51;235.33;;;175.43;;
23163;SDS011;31429;42.674;23.350;2023-12-20T03:40:53;245.50;;;176.20;;
23163;SDS011;31429;42.674;23.350;2023-12-20T03:41:54;246.88;;;178.43;;
23163;SDS011;31429;42.674;23.350;2023-12-20T03:42:54;265.77;;;193.63;;
23163;SDS011;31429;42.674;23.350;2023-12-20T03:43:55;261.23;;;188.43;;
23163;SDS011;31429;42.674;23.350;2023-12-20T03:44:56;269.63;;;196.40;;
23163;SDS011;31429;42.674;23.350;2023-12-20T03:45:56;264.23;;;189.77;;
23163;SDS011;31429;42.674;23.350;2023-12-20T03:47:17;257.33;;;188.23;;
23163;SDS011;31429;42.674;23.350;2023-12-20T03:48:18;253.53;;;180.80;;
23163;SDS011;31429;42.674;23.350;2023-12-20T03:49:19;254.87;;;185.90;;
23163;SDS011;31429;42.674;23.350;2023-12-20T03:50:19;263.53;;;190.40;;
23163;SDS011;31429;42.674;23.350;2023-12-20T03:51:20;246.30;;;180.93;;
23163;SDS011;31429;42.674;23.350;2023-12-20T03:52:21;244.00;;;178.20;;
23163;SDS011;31429;42.674;23.350;2023-12-20T03:53:22;246.07;;;179.87;;
23163;SDS011;31429;42.674;23.350;2023-12-20T03:54:22;235.47;;;169.63;;
23163;SDS011;31429;42.674;23.350;2023-12-20T03:55:24;224.93;;;164.40;;
23163;SDS011;31429;42.674;23.350;2023-12-20T03:56:26;236.13;;;174.70;;
23163;SDS011;31429;42.674;23.350;2023-12-20T03:57:27;231.40;;;169.27;;
23163;SDS011;31429;42.674;23.350;2023-12-20T03:58:27;229.80;;;169.20;;
23163;SDS011;31429;42.674;23.350;2023-12-20T03:59:28;233.90;;;174.30;;
23163;SDS011;31429;42.674;23.350;2023-12-20T04:00:29;234.67;;;168.67;;
23163;SDS011;31429;42.674;23.350;2023-12-20T04:01:30;238.20;;;172.53;;
23163;SDS011;31429;42.674;23.350;2023-12-20T04:02:30;220.30;;;159.80;;
23163;SDS011;31429;42.674;23.350;2023-12-20T04:03:31;227.17;;;167.10;;
23163;SDS011;31429;42.674;23.350;2023-12-20T04:04:32;225.63;;;165.37;;
23163;SDS011;31429;42.674;23.350;2023-12-20T04:05:33;240.77;;;172.93;;
23163;SDS011;31429;42.674;23.350;2023-12-20T04:06:33;242.93;;;176.97;;
23163;SDS011;31429;42.674;23.350;2023-12-20T04:07:34;241.03;;;176.17;;
23163;SDS011;31429;42.674;23.350;2023-12-20T04:08:35;214.88;;;157.20;;
23163;SDS011;31429;42.674;23.350;2023-12-20T04:09:36;220.13;;;161.13;;
23163;SDS011;31429;42.674;23.350;2023-12-20T04:10:37;216.82;;;158.30;;
23163;SDS011;31429;42.674;23.350;2023-12-20T04:11:39;211.63;;;157.07;;
23163;SDS011;31429;42.674;23.350;2023-12-20T04:12:40;214.75;;;157.40;;
23163;SDS011;31429;42.674;23.350;2023-12-20T04:13:41;203.23;;;152.67;;
23163;SDS011;31429;42.674;23.350;2023-12-20T04:14:42;212.07;;;155.17;;
23163;SDS011;31429;42.674;23.350;2023-12-20T04:15:43;214.67;;;154.03;;
23163;SDS011;31429;42.674;23.350;2023-12-20T04:16:43;210.03;;;157.90;;
23163;SDS011;31429;42.674;23.350;2023-12-20T04:17:44;199.57;;;150.43;;
23163;SDS011;31429;42.674;23.350;2023-12-20T04:18:45;208.73;;;154.37;;
23163;SDS011;31429;42.674;23.350;2023-12-20T04:19:46;199.97;;;151.87;;
23163;SDS011;31429;42.674;23.350;2023-12-20T04:20:46;205.27;;;155.57;;
23163;SDS011;31429;42.674;23.350;2023-12-20T04:21:47;207.40;;;152.93;;
23163;SDS011;31429;42.674;23.350;2023-12-20T04:22:48;210.20;;;154.10;;
23163;SDS011;31429;42.674;23.350;2023-12-20T04:23:49;199.50;;;146.40;;
23163;SDS011;31429;42.674;23.350;2023-12-20T04:24:49;195.30;;;145.47;;
23163;SDS011;31429;42.674;23.350;2023-12-20T04:25:50;196.10;;;147.23;;
23163;SDS011;31429;42.674;23.350;2023-12-20T04:26:52;195.40;;;145.50;;
23163;SDS011;31429;42.674;23.350;2023-12-20T04:27:53;196.40;;;145.45;;
23163;SDS011;31429;42.674;23.350;2023-12-20T04:28:54;195.50;;;143.10;;
23163;SDS011;31429;42.674;23.350;2023-12-20T04:29:54;187.90;;;144.53;;
23163;SDS011;31429;42.674;23.350;2023-12-20T04:30:55;189.23;;;141.93;;
23163;SDS011;31429;42.674;23.350;2023-12-20T04:32:16;193.00;;;145.63;;
23163;SDS011;31429;42.674;23.350;2023-12-20T04:33:17;194.33;;;143.20;;
23163;SDS011;31429;42.674;23.350;2023-12-20T04:34:17;190.27;;;144.37;;
23163;SDS011;31429;42.674;23.350;2023-12-20T04:35:18;179.37;;;134.07;;
23163;SDS011;31429;42.674;23.350;2023-12-20T04:36:19;178.07;;;131.97;;
23163;SDS011;31429;42.674;23.350;2023-12-20T04:37:20;181.07;;;138.90;;
23163;SDS011;31429;42.674;23.350;2023-12-20T04:38:21;197.33;;;142.93;;
23163;SDS011;31429;42.674;23.350;2023-12-20T04:39:21;194.43;;;142.90;;
23163;SDS011;31429;42.674;23.350;2023-12-20T04:40:22;208.37;;;149.27;;
23163;SDS011;31429;42.674;23.350;2023-12-20T04:41:23;192.13;;;144.97;;
23163;SDS011;31429;42.674;23.350;2023-12-20T04:42:25;185.07;;;143.23;;
23163;SDS011;31429;42.674;23.350;2023-12-20T04:43:26;193.18;;;143.90;;
23163;SDS011;31429;42.674;23.350;2023-12-20T04:44:26;191.77;;;144.57;;
23163;SDS011;31429;42.674;23.350;2023-12-20T04:45:27;202.27;;;150.10;;
23163;SDS011;31429;42.674;23.350;2023-12-20T04:46:28;179.53;;;136.77;;
23163;SDS011;31429;42.674;23.350;2023-12-20T04:47:29;182.43;;;135.07;;
23163;SDS011;31429;42.674;23.350;2023-12-20T04:48:29;177.93;;;131.90;;
23163;SDS011;31429;42.674;23.350;2023-12-20T04:49:30;180.43;;;132.10;;
23163;SDS011;31429;42.674;23.350;2023-12-20T04:50:31;174.53;;;132.90;;
23163;SDS011;31429;42.674;23.350;2023-12-20T04:51:33;166.43;;;128.63;;
23163;SDS011;31429;42.674;23.350;2023-12-20T04:52:54;164.25;;;123.22;;
23163;SDS011;31429;42.674;23.350;2023-12-20T04:53:54;157.17;;;119.37;;
23163;SDS011;31429;42.674;23.350;2023-12-20T04:54:55;138.37;;;104.93;;
23163;SDS011;31429;42.674;23.350;2023-12-20T04:55:56;160.33;;;119.07;;
23163;SDS011;31429;42.674;23.350;2023-12-20T04:56:57;148.10;;;111.88;;
23163;SDS011;31429;42.674;23.350;2023-12-20T04:57:59;156.50;;;119.00;;
23163;SDS011;31429;42.674;23.350;2023-12-20T04:59:00;148.80;;;113.07;;
23163;SDS011;31429;42.674;23.350;2023-12-20T05:00:01;141.57;;;108.67;;
23163;SDS011;31429;42.674;23.350;2023-12-20T05:01:21;165.82;;;119.38;;
23163;SDS011;31429;42.674;23.350;2023-12-20T05:02:22;149.37;;;112.30;;
23163;SDS011;31429;42.674;23.350;2023-12-20T05:03:23;152.07;;;115.50;;
23163;SDS011;31429;42.674;23.350;2023-12-20T05:04:24;151.37;;;112.43;;
23163;SDS011;31429;42.674;23.350;2023-12-20T05:05:25;151.97;;;115.93;;
23163;SDS011;31429;42.674;23.350;2023-12-20T05:06:25;153.23;;;116.67;;
23163;SDS011;31429;42.674;23.350;2023-12-20T05:07:26;151.73;;;116.70;;
23163;SDS011;31429;42.674;23.350;2023-12-20T05:08:27;162.73;;;118.63;;
23163;SDS011;31429;42.674;23.350;2023-12-20T05:09:28;152.97;;;115.97;;
23163;SDS011;31429;42.674;23.350;2023-12-20T05:10:28;160.87;;;120.00;;
23163;SDS011;31429;42.674;23.350;2023-12-20T05:11:29;163.77;;;120.70;;
23163;SDS011;31429;42.674;23.350;2023-12-20T05:12:30;156.43;;;119.97;;
23163;SDS011;31429;42.674;23.350;2023-12-20T05:13:32;160.50;;;118.70;;
23163;SDS011;31429;42.674;23.350;2023-12-20T05:14:33;164.25;;;122.07;;
23163;SDS011;31429;42.674;23.350;2023-12-20T05:15:34;168.43;;;123.17;;
23163;SDS011;31429;42.674;23.350;2023-12-20T05:16:34;170.40;;;121.17;;
23163;SDS011;31429;42.674;23.350;2023-12-20T05:17:35;158.63;;;121.23;;
23163;SDS011;31429;42.674;23.350;2023-12-20T05:18:36;164.37;;;121.57;;
23163;SDS011;31429;42.674;23.350;2023-12-20T05:19:37;177.07;;;125.50;;
23163;SDS011;31429;42.674;23.350;2023-12-20T05:20:37;191.60;;;131.90;;
23163;SDS011;31429;42.674;23.350;2023-12-20T05:21:38;177.60;;;124.20;;
23163;SDS011;31429;42.674;23.350;2023-12-20T05:22:40;173.90;;;126.23;;
23163;SDS011;31429;42.674;23.350;2023-12-20T05:23:41;178.02;;;125.75;;
23163;SDS011;31429;42.674;23.350;2023-12-20T05:24:42;191.67;;;132.43;;
23163;SDS011;31429;42.674;23.350;2023-12-20T05:25:43;184.83;;;130.87;;
23163;SDS011;31429;42.674;23.350;2023-12-20T05:26:44;179.73;;;130.43;;
23163;SDS011;31429;42.674;23.350;2023-12-20T05:27:45;197.00;;;131.63;;
23163;SDS011;31429;42.674;23.350;2023-12-20T05:28:47;214.20;;;138.30;;
23163;SDS011;31429;42.674;23.350;2023-12-20T05:29:47;267.17;;;145.75;;
23163;SDS011;31429;42.674;23.350;2023-12-20T05:30:48;292.77;;;135.80;;
23163;SDS011;31429;42.674;23.350;2023-12-20T05:31:49;216.23;;;140.10;;
23163;SDS011;31429;42.674;23.350;2023-12-20T05:32:50;209.73;;;135.07;;
23163;SDS011;31429;42.674;23.350;2023-12-20T05:33:51;280.13;;;161.02;;
23163;SDS011;31429;42.674;23.350;2023-12-20T05:34:52;233.77;;;140.23;;
23163;SDS011;31429;42.674;23.350;2023-12-20T05:35:52;199.93;;;135.70;;
23163;SDS011;31429;42.674;23.350;2023-12-20T05:36:53;194.77;;;131.90;;
23163;SDS011;31429;42.674;23.350;2023-12-20T05:37:54;217.87;;;144.50;;
23163;SDS011;31429;42.674;23.350;2023-12-20T05:38:55;182.30;;;128.70;;
23163;SDS011;31429;42.674;23.350;2023-12-20T05:39:55;198.87;;;133.87;;
23163;SDS011;31429;42.674;23.350;2023-12-20T05:40:56;212.50;;;138.90;;
23163;SDS011;31429;42.674;23.350;2023-12-20T05:41:57;218.57;;;128.50;;
23163;SDS011;31429;42.674;23.350;2023-12-20T05:42:58;371.77;;;148.63;;
23163;SDS011;31429;42.674;23.350;2023-12-20T05:44:00;283.80;;;137.37;;
23163;SDS011;31429;42.674;23.350;2023-12-20T05:45:01;313.33;;;141.07;;
23163;SDS011;31429;42.674;23.350;2023-12-20T05:46:01;235.27;;;130.73;;
23163;SDS011;31429;42.674;23.350;2023-12-20T05:47:02;255.55;;;131.15;;
23163;SDS011;31429;42.674;23.350;2023-12-20T05:48:04;216.70;;;131.18;;
23163;SDS011;31429;42.674;23.350;2023-12-20T05:49:05;285.23;;;143.30;;
23163;SDS011;31429;42.674;23.350;2023-12-20T05:50:06;231.90;;;137.73;;
23163;SDS011;31429;42.674;23.350;2023-12-20T05:51:07;264.15;;;149.50;;
23163;SDS011;31429;42.674;23.350;2023-12-20T05:52:11;185.40;;;125.75;;
23163;SDS011;31429;42.674;23.350;2023-12-20T05:53:12;189.30;;;129.13;;